Time;durP1;ratioP1;P1;durP2;ratioP2;P2;SDS_P1;SDS_P2;PMS_P1;PMS_P2;Temp;Humidity;BMP_temperature;BMP_pressure;BME280_temperature;BME280_humidity;BME280_pressure;Samples;Min_cycle;Max_cycle;Signal;HPM_P1;HPM_P2
2022/01/25 00:09:49;;;;;;;51.28;25.58;;;5.90;99.90;;;;;;5061556;28;20201;-74
2022/01/25 00:15:10;;;;;;;49.80;27.98;;;5.90;99.90;;;;;;5058262;28;20280;-72
2022/01/25 00:26:05;;;;;;;48.22;27.13;;;5.90;99.90;;;;;;5059169;28;20274;-72
2022/01/25 00:28:45;;;;;;;53.08;28.63;;;5.80;99.90;;;;;;5059386;28;20480;-67
2022/01/25 00:31:13;;;;;;;53.90;27.27;;;5.70;99.90;;;;;;5058380;28;20217;-73
2022/01/25 00:33:43;;;;;;;53.17;26.90;;;5.70;99.90;;;;;;5058660;28;20189;-71
2022/01/25 00:36:15;;;;;;;50.90;27.25;;;5.70;99.90;;;;;;5059019;28;20460;-72
2022/01/25 00:38:43;;;;;;;52.60;28.40;;;5.80;99.90;;;;;;5058860;28;20207;-70
2022/01/25 00:41:11;;;;;;;49.90;25.15;;;5.80;99.90;;;;;;5058618;28;20204;-70
2022/01/25 00:43:40;;;;;;;54.08;28.50;;;5.80;99.90;;;;;;5059999;28;20304;-74
2022/01/25 00:46:10;;;;;;;52.40;28.05;;;5.70;99.90;;;;;;5059830;28;20479;-74
2022/01/25 00:48:45;;;;;;;60.95;27.70;;;5.70;99.90;;;;;;5060441;28;20781;-74
2022/01/25 00:51:35;;;;;;;54.97;29.08;;;5.80;99.90;;;;;;5058490;28;20621;-73
2022/01/25 00:54:10;;;;;;;49.95;27.35;;;5.80;99.90;;;;;;5058067;28;20207;-73
2022/01/25 00:56:41;;;;;;;67.47;31.80;;;5.80;99.90;;;;;;5057619;28;20586;-73
2022/01/25 00:59:11;;;;;;;61.58;30.02;;;5.80;99.90;;;;;;5058326;28;20653;-73
2022/01/25 01:01:40;;;;;;;56.85;27.20;;;5.70;99.90;;;;;;5058107;28;20207;-72
2022/01/25 01:04:09;;;;;;;56.25;28.75;;;5.70;99.90;;;;;;5058675;28;20278;-72
2022/01/25 01:06:40;;;;;;;53.17;27.83;;;5.70;99.90;;;;;;5058236;28;20224;-72
2022/01/25 01:09:08;;;;;;;54.72;27.05;;;5.70;99.90;;;;;;5059550;28;20660;-72
2022/01/25 01:11:42;;;;;;;54.95;28.67;;;5.70;99.90;;;;;;5061429;28;20217;-72
2022/01/25 01:14:17;;;;;;;63.38;31.25;;;5.80;99.90;;;;;;5060500;28;20202;-72
2022/01/25 01:17:01;;;;;;;65.90;30.00;;;5.80;99.90;;;;;;5060409;28;20224;-73
2022/01/25 01:30:44;;;;;;;63.00;31.33;;;5.70;99.90;;;;;;5059718;28;20299;-74
2022/01/25 01:33:37;;;;;;;63.30;31.50;;;5.60;99.90;;;;;;5059106;28;20227;-72
2022/01/25 01:39:25;;;;;;;74.03;34.88;;;5.70;99.90;;;;;;5059261;28;20300;-75
2022/01/25 01:42:15;;;;;;;75.80;32.50;;;5.60;99.90;;;;;;5071138;28;20298;-74
2022/01/25 01:45:05;;;;;;;67.00;32.72;;;5.60;99.90;;;;;;5073390;28;20299;-74
2022/01/25 01:47:39;;;;;;;73.15;33.40;;;5.60;99.90;;;;;;5059961;28;20245;-73
2022/01/25 01:50:09;;;;;;;71.85;33.40;;;5.60;99.90;;;;;;5060006;28;20197;-73
2022/01/25 01:52:37;;;;;;;76.25;35.38;;;5.50;99.90;;;;;;5059149;28;20322;-72
2022/01/25 01:55:08;;;;;;;79.88;36.72;;;5.60;99.90;;;;;;5058954;28;20577;-74
2022/01/25 01:57:36;;;;;;;64.55;30.98;;;5.60;99.90;;;;;;5058897;28;20250;-74
2022/01/25 02:00:06;;;;;;;67.68;33.53;;;5.60;99.90;;;;;;5058735;28;20205;-74
2022/01/25 02:02:34;;;;;;;74.45;33.42;;;5.60;99.90;;;;;;5058734;28;20228;-74
2022/01/25 02:05:02;;;;;;;73.82;35.15;;;5.60;99.90;;;;;;5058231;28;20691;-74
2022/01/25 02:07:30;;;;;;;78.80;35.67;;;5.70;99.90;;;;;;5058175;28;20221;-73
2022/01/25 02:09:58;;;;;;;64.80;33.25;;;5.70;99.90;;;;;;5060936;28;20204;-74
2022/01/25 02:12:28;;;;;;;71.78;33.92;;;5.70;99.90;;;;;;5061718;28;20667;-75
2022/01/25 02:14:56;;;;;;;73.78;34.17;;;5.70;99.90;;;;;;5060968;28;20676;-74
2022/01/25 02:17:50;;;;;;;78.43;33.92;;;5.60;99.90;;;;;;5061371;28;20799;-74
2022/01/25 02:23:17;;;;;;;70.22;34.10;;;5.60;99.90;;;;;;5061196;28;20188;-74
2022/01/25 02:25:46;;;;;;;80.72;34.22;;;5.60;99.90;;;;;;5061174;28;20300;-74
2022/01/25 02:28:14;;;;;;;79.82;36.50;;;5.60;99.90;;;;;;5060816;28;20228;-74
2022/01/25 02:30:43;;;;;;;80.43;34.97;;;5.60;99.90;;;;;;5062681;28;20205;-75
2022/01/25 02:33:11;;;;;;;81.75;35.63;;;5.60;99.90;;;;;;5062175;28;20224;-74
2022/01/25 02:35:42;;;;;;;78.07;37.28;;;5.60;99.90;;;;;;5061787;28;20201;-72
2022/01/25 02:38:10;;;;;;;78.20;34.85;;;5.60;99.90;;;;;;5063189;28;20225;-72
2022/01/25 02:40:38;;;;;;;78.82;34.58;;;5.60;99.90;;;;;;5064008;28;20360;-72
2022/01/25 02:43:06;;;;;;;75.85;34.47;;;5.60;99.90;;;;;;5063000;28;20484;-76
2022/01/25 02:45:36;;;;;;;79.95;36.72;;;5.60;99.90;;;;;;5069156;28;20292;-76
2022/01/25 02:50:51;;;;;;;78.53;34.65;;;5.60;99.90;;;;;;5062662;28;20290;-74
2022/01/25 02:53:19;;;;;;;78.07;35.55;;;5.60;99.90;;;;;;5061567;28;20231;-75
2022/01/25 02:55:46;;;;;;;72.03;35.25;;;5.60;99.90;;;;;;5061773;28;20468;-73
2022/01/25 02:58:14;;;;;;;88.88;36.15;;;5.50;99.90;;;;;;5061181;28;20308;-76
2022/01/25 03:00:42;;;;;;;78.35;35.85;;;5.50;99.90;;;;;;5062170;28;20208;-75
2022/01/25 03:03:10;;;;;;;80.07;35.33;;;5.50;99.90;;;;;;5060619;28;20323;-74
2022/01/25 03:05:38;;;;;;;76.43;34.00;;;5.50;99.90;;;;;;5060332;28;20213;-75
2022/01/25 03:08:11;;;;;;;80.18;36.72;;;5.40;99.90;;;;;;5064651;28;20221;-73
2022/01/25 03:10:42;;;;;;;81.28;35.88;;;5.50;99.90;;;;;;5074090;28;20207;-74
2022/01/25 03:13:15;;;;;;;96.35;38.20;;;5.50;99.90;;;;;;5084573;28;20205;-74
2022/01/25 03:18:50;;;;;;;73.40;34.88;;;5.50;99.90;;;;;;5071543;28;20211;-72
2022/01/25 03:24:04;;;;;;;95.15;37.80;;;5.50;99.90;;;;;;5059302;28;20758;-73
2022/01/25 03:26:33;;;;;;;86.13;37.40;;;5.50;99.90;;;;;;5062234;28;20211;-74
2022/01/25 03:29:01;;;;;;;80.82;39.17;;;5.50;99.90;;;;;;5062431;28;20197;-75
2022/01/25 03:31:29;;;;;;;86.88;37.92;;;5.50;99.90;;;;;;5062227;28;20692;-75
2022/01/25 03:33:57;;;;;;;74.82;35.13;;;5.50;99.90;;;;;;5061396;28;20205;-75
2022/01/25 03:36:25;;;;;;;100.53;39.65;;;5.50;99.90;;;;;;5060939;28;20201;-72
2022/01/25 03:38:53;;;;;;;91.35;39.17;;;5.50;99.90;;;;;;5059819;28;20232;-75
2022/01/25 03:41:24;;;;;;;87.38;38.30;;;5.50;99.90;;;;;;5060808;28;20209;-74
2022/01/25 03:43:53;;;;;;;88.20;38.33;;;5.50;99.90;;;;;;5059487;28;20213;-74
2022/01/25 03:46:29;;;;;;;83.40;36.22;;;5.50;99.90;;;;;;5060731;28;20795;-74
2022/01/25 03:51:43;;;;;;;86.05;36.15;;;5.50;99.90;;;;;;5061987;28;20288;-74
2022/01/25 03:54:11;;;;;;;83.20;38.63;;;5.50;99.90;;;;;;5061350;28;20266;-75
2022/01/25 03:56:40;;;;;;;83.93;37.10;;;5.50;99.90;;;;;;5061124;28;20316;-73
2022/01/25 03:59:09;;;;;;;93.70;40.17;;;5.50;99.90;;;;;;5061430;28;20211;-75
2022/01/25 04:01:37;;;;;;;88.40;38.40;;;5.50;99.90;;;;;;5061946;28;20297;-75
2022/01/25 04:04:08;;;;;;;81.32;36.85;;;5.40;99.90;;;;;;5061516;28;20201;-75
2022/01/25 04:06:37;;;;;;;79.95;35.80;;;5.40;99.90;;;;;;5063859;28;20225;-74
2022/01/25 04:09:08;;;;;;;86.15;38.20;;;5.40;99.90;;;;;;5062107;28;20209;-74
2022/01/25 04:11:37;;;;;;;86.68;38.95;;;5.40;99.90;;;;;;5061347;28;20201;-74
2022/01/25 04:14:06;;;;;;;79.15;35.80;;;5.40;99.90;;;;;;5060138;28;20246;-74
2022/01/25 04:16:38;;;;;;;86.57;35.45;;;5.40;99.90;;;;;;5059578;28;20789;-69
2022/01/25 04:19:10;;;;;;;93.68;38.00;;;5.40;99.90;;;;;;5060334;28;20204;-70
2022/01/25 04:25:02;;;;;;;83.60;36.35;;;5.40;99.90;;;;;;4999219;28;20285;-70
2022/01/25 04:27:30;;;;;;;82.50;34.90;;;5.40;99.90;;;;;;4998963;28;20223;-71
2022/01/25 04:30:00;;;;;;;85.20;38.20;;;5.50;99.90;;;;;;5061387;28;20466;-71
2022/01/25 04:32:34;;;;;;;94.43;40.45;;;5.40;99.90;;;;;;5058809;28;20323;-71
2022/01/25 04:35:12;;;;;;;86.72;38.00;;;5.40;99.90;;;;;;5061060;28;20200;-70
2022/01/25 04:49:05;;;;;;;82.80;34.20;;;5.40;99.90;;;;;;5058966;28;20208;-70
2022/01/25 04:54:40;;;;;;;88.13;37.80;;;5.50;99.90;;;;;;5060809;28;20217;-72
2022/01/25 04:57:22;;;;;;;93.22;39.25;;;5.50;99.90;;;;;;5060614;28;20479;-70
2022/01/25 04:59:58;;;;;;;79.65;36.38;;;5.50;99.90;;;;;;5060016;28;20273;-72
2022/01/25 05:02:37;;;;;;;92.13;39.30;;;5.60;99.90;;;;;;5060505;28;20201;-73
2022/01/25 05:05:11;;;;;;;87.20;38.33;;;5.60;99.90;;;;;;5062080;28;20205;-72
2022/01/25 05:07:46;;;;;;;86.22;37.80;;;5.60;99.90;;;;;;5066293;28;20220;-72
2022/01/25 05:10:15;;;;;;;90.43;37.78;;;5.70;99.90;;;;;;5061664;28;20575;-71
2022/01/25 05:12:46;;;;;;;99.93;41.65;;;5.70;99.90;;;;;;5058672;28;20456;-73
2022/01/25 05:16:00;;;;;;;78.45;36.15;;;5.70;99.90;;;;;;5058248;28;20204;-71
2022/01/25 05:18:40;;;;;;;71.63;35.38;;;5.70;99.90;;;;;;5057882;28;20244;-71
2022/01/25 05:23:54;;;;;;;78.88;37.92;;;5.70;99.90;;;;;;5058356;28;20220;-72
2022/01/25 05:26:23;;;;;;;91.68;40.05;;;5.70;99.90;;;;;;5058726;28;20567;-73
2022/01/25 05:28:54;;;;;;;79.80;35.92;;;5.70;99.90;;;;;;5058608;28;20215;-72
2022/01/25 05:31:22;;;;;;;76.45;37.20;;;5.70;99.90;;;;;;5061145;28;20204;-73
2022/01/25 05:33:51;;;;;;;83.43;35.45;;;5.70;99.90;;;;;;5059991;28;20240;-74
2022/01/25 05:36:24;;;;;;;84.95;36.05;;;5.60;99.90;;;;;;5059187;28;20646;-75
2022/01/25 05:38:55;;;;;;;80.25;36.85;;;5.60;99.90;;;;;;5060686;28;20316;-75
2022/01/25 05:41:26;;;;;;;77.00;35.42;;;5.50;99.90;;;;;;5059562;28;20355;-74
2022/01/25 05:44:15;;;;;;;72.22;34.80;;;5.50;99.90;;;;;;5060866;28;20197;-75
2022/01/25 05:46:47;;;;;;;78.22;35.20;;;5.50;99.90;;;;;;5062430;28;20635;-76
2022/01/25 05:49:16;;;;;;;83.32;38.88;;;5.50;99.90;;;;;;5062552;28;20209;-74
2022/01/25 05:51:44;;;;;;;78.32;36.45;;;5.50;99.90;;;;;;5061861;28;20676;-74
2022/01/25 05:54:13;;;;;;;80.45;36.88;;;5.60;99.90;;;;;;5062633;28;20587;-75
2022/01/25 05:56:40;;;;;;;84.75;37.78;;;5.60;99.90;;;;;;5063407;28;20468;-76
2022/01/25 05:59:09;;;;;;;86.65;36.22;;;5.60;99.90;;;;;;5063863;28;20232;-74
2022/01/25 06:01:37;;;;;;;78.88;35.20;;;5.60;99.90;;;;;;5062698;28;20201;-74
2022/01/25 06:04:06;;;;;;;83.18;38.08;;;5.60;99.90;;;;;;5062909;28;20721;-73
2022/01/25 06:06:35;;;;;;;87.03;35.20;;;5.60;99.90;;;;;;5061450;28;20748;-73
2022/01/25 06:09:04;;;;;;;73.88;34.28;;;5.60;99.90;;;;;;5062654;28;20225;-74
2022/01/25 06:11:32;;;;;;;83.88;37.03;;;5.60;99.90;;;;;;5065931;28;20288;-73
2022/01/25 06:14:00;;;;;;;71.25;31.85;;;5.60;99.90;;;;;;5063256;28;20258;-75
2022/01/25 06:16:29;;;;;;;78.85;34.13;;;5.60;99.90;;;;;;5062800;28;20201;-75
2022/01/25 06:18:57;;;;;;;73.47;34.88;;;5.60;99.90;;;;;;5065592;28;20213;-75
2022/01/25 06:21:25;;;;;;;79.50;34.00;;;5.60;99.90;;;;;;5061492;28;20197;-74
2022/01/25 06:23:55;;;;;;;77.82;35.72;;;5.70;99.90;;;;;;5061917;28;20288;-74
2022/01/25 06:26:23;;;;;;;76.13;35.50;;;5.70;99.90;;;;;;5063091;28;20197;-72
2022/01/25 06:28:51;;;;;;;80.72;37.40;;;5.70;99.90;;;;;;5061546;28;20291;-69
2022/01/25 06:31:19;;;;;;;85.57;37.75;;;5.60;99.90;;;;;;5061334;28;20296;-70
2022/01/25 06:33:48;;;;;;;79.00;36.85;;;5.60;99.90;;;;;;5062200;28;20248;-68
2022/01/25 06:36:19;;;;;;;76.38;35.92;;;5.60;99.90;;;;;;5061954;28;20201;-75
2022/01/25 06:38:47;;;;;;;96.82;36.60;;;5.70;99.90;;;;;;5061491;28;20232;-76
2022/01/25 06:41:17;;;;;;;81.03;36.60;;;5.70;99.90;;;;;;5062706;28;20253;-76
2022/01/25 06:43:46;;;;;;;74.75;33.83;;;5.70;99.90;;;;;;5062974;28;20196;-77
2022/01/25 06:46:14;;;;;;;81.70;36.58;;;5.60;99.90;;;;;;5062160;28;20262;-76
2022/01/25 06:48:42;;;;;;;85.78;44.75;;;5.60;99.90;;;;;;5062780;28;20511;-77
2022/01/25 06:51:10;;;;;;;88.30;39.42;;;5.60;99.90;;;;;;5062726;28;20243;-76
2022/01/25 06:53:37;;;;;;;87.00;38.53;;;5.70;99.90;;;;;;5061674;28;20213;-77
2022/01/25 06:56:06;;;;;;;77.55;36.10;;;5.70;99.90;;;;;;5063604;28;20205;-71
2022/01/25 06:58:35;;;;;;;81.15;36.17;;;5.70;99.90;;;;;;5063939;28;20316;-71
2022/01/25 07:01:04;;;;;;;73.03;34.42;;;5.60;99.90;;;;;;5062650;28;20204;-71
2022/01/25 07:03:32;;;;;;;88.38;38.30;;;5.60;99.90;;;;;;5063562;28;20185;-69
2022/01/25 07:06:01;;;;;;;77.40;33.80;;;5.60;99.90;;;;;;5063244;28;20409;-71
2022/01/25 07:08:29;;;;;;;88.88;35.60;;;5.60;99.90;;;;;;5062732;28;20322;-71
2022/01/25 07:10:57;;;;;;;78.03;35.85;;;5.70;99.90;;;;;;5063601;28;20312;-70
2022/01/25 07:13:25;;;;;;;79.05;36.67;;;5.60;99.90;;;;;;5062296;28;20231;-69
2022/01/25 07:15:54;;;;;;;76.43;34.35;;;5.60;99.90;;;;;;5060681;28;20211;-69
2022/01/25 07:18:22;;;;;;;82.30;35.72;;;5.60;99.90;;;;;;5060450;28;20221;-69
2022/01/25 07:20:50;;;;;;;79.57;35.58;;;5.60;99.90;;;;;;5060384;28;20288;-70
2022/01/25 07:23:17;;;;;;;73.82;36.00;;;5.60;99.90;;;;;;5061252;28;20235;-69
2022/01/25 07:25:46;;;;;;;79.80;35.13;;;5.60;99.90;;;;;;5059452;28;20238;-68
2022/01/25 07:28:13;;;;;;;74.25;32.88;;;5.60;99.90;;;;;;5065479;28;20327;-69
2022/01/25 07:30:43;;;;;;;80.38;35.20;;;5.50;99.90;;;;;;5066322;28;20203;-70
2022/01/25 07:33:29;;;;;;;78.22;34.80;;;5.50;99.90;;;;;;5074519;28;20218;-67
2022/01/25 07:35:58;;;;;;;83.47;36.75;;;5.50;99.90;;;;;;5081379;28;20334;-68
2022/01/25 07:38:32;;;;;;;87.93;38.58;;;5.50;99.90;;;;;;5080089;28;20722;-68
2022/01/25 07:41:11;;;;;;;76.38;36.10;;;5.60;99.90;;;;;;5080354;28;20215;-73
2022/01/25 07:43:46;;;;;;;87.90;36.75;;;5.60;99.90;;;;;;5072970;28;20949;-71
2022/01/25 07:46:16;;;;;;;82.35;35.08;;;5.60;99.90;;;;;;5074443;28;20220;-70
2022/01/25 07:48:52;;;;;;;91.43;38.05;;;5.60;99.90;;;;;;5077647;28;20206;-72
2022/01/25 07:51:23;;;;;;;84.72;34.65;;;5.70;99.90;;;;;;5081673;28;20192;-75
2022/01/25 07:53:50;;;;;;;72.57;33.25;;;5.70;99.90;;;;;;5087747;28;20235;-74
2022/01/25 07:56:18;;;;;;;82.90;37.38;;;5.70;99.90;;;;;;5093755;28;20299;-76
2022/01/25 07:58:46;;;;;;;74.55;33.83;;;5.70;99.90;;;;;;5099913;28;20200;-74
2022/01/25 08:01:14;;;;;;;79.38;36.97;;;5.70;99.90;;;;;;5098301;28;20231;-75
2022/01/25 08:03:43;;;;;;;83.18;38.25;;;5.70;99.90;;;;;;5097769;28;20214;-76
2022/01/25 08:06:29;;;;;;;78.95;35.47;;;5.70;99.90;;;;;;5019690;28;20202;-73
2022/01/25 08:09:01;;;;;;;85.30;36.95;;;5.70;99.90;;;;;;5019104;28;20284;-75
2022/01/25 08:11:42;;;;;;;80.80;36.42;;;5.70;99.90;;;;;;5018351;28;20264;-74
2022/01/25 08:14:27;;;;;;;84.03;34.67;;;5.70;99.90;;;;;;4980116;28;20727;-74
2022/01/25 08:17:07;;;;;;;79.95;35.05;;;5.70;99.90;;;;;;5018443;28;20244;-69
2022/01/25 08:19:44;;;;;;;72.65;34.33;;;5.70;99.90;;;;;;5022244;28;20199;-73
2022/01/25 08:22:28;;;;;;;83.78;35.90;;;5.70;99.90;;;;;;4962177;28;20197;-73
2022/01/25 08:25:17;;;;;;;86.00;36.92;;;5.70;99.90;;;;;;4954300;28;20212;-72
2022/01/25 08:27:59;;;;;;;96.30;36.38;;;5.70;99.90;;;;;;4959080;28;20616;-76
2022/01/25 08:30:50;;;;;;;84.35;35.88;;;5.80;99.90;;;;;;4954985;28;20208;-77
2022/01/25 08:33:32;;;;;;;84.88;34.97;;;5.80;99.90;;;;;;4956765;28;20259;-77
2022/01/25 08:36:25;;;;;;;88.57;36.95;;;5.80;99.90;;;;;;4949733;28;20236;-78
2022/01/25 08:38:59;;;;;;;78.72;36.00;;;5.80;99.90;;;;;;4959994;28;20204;-76
2022/01/25 08:41:38;;;;;;;74.75;34.33;;;5.80;99.90;;;;;;4962009;28;20214;-75
2022/01/25 08:44:29;;;;;;;73.05;32.85;;;5.80;99.90;;;;;;5011306;28;20202;-74
2022/01/25 08:47:11;;;;;;;88.72;38.60;;;5.80;99.90;;;;;;5036798;28;20222;-73
2022/01/25 08:49:40;;;;;;;77.45;35.40;;;5.70;99.90;;;;;;5037152;28;20280;-72
2022/01/25 08:52:19;;;;;;;76.95;34.53;;;5.80;99.90;;;;;;5037846;28;20293;-71
2022/01/25 08:55:06;;;;;;;88.35;35.42;;;5.70;99.90;;;;;;5057589;28;20213;-72
2022/01/25 08:57:37;;;;;;;79.43;34.17;;;5.80;99.90;;;;;;5060179;28;20716;-72
2022/01/25 09:00:23;;;;;;;76.60;34.55;;;5.80;99.90;;;;;;5061052;28;20418;-73
2022/01/25 09:02:51;;;;;;;81.60;35.30;;;5.80;99.90;;;;;;5061861;28;20283;-73
2022/01/25 09:05:19;;;;;;;75.10;34.42;;;5.70;99.90;;;;;;5060675;28;20224;-71
2022/01/25 09:07:47;;;;;;;80.80;33.03;;;5.70;99.90;;;;;;5059445;28;20229;-71
2022/01/25 09:10:16;;;;;;;72.68;33.72;;;5.80;99.90;;;;;;5059483;28;20236;-73
2022/01/25 09:12:45;;;;;;;75.07;35.10;;;5.80;99.90;;;;;;5059449;28;20680;-72
2022/01/25 09:15:13;;;;;;;79.90;35.42;;;5.80;99.90;;;;;;5058399;28;20286;-75
2022/01/25 09:17:41;;;;;;;71.78;33.40;;;5.80;99.90;;;;;;5060991;28;20220;-73
2022/01/25 09:20:10;;;;;;;72.40;34.85;;;5.80;99.90;;;;;;5072761;28;20211;-73
2022/01/25 09:22:38;;;;;;;77.47;34.75;;;5.80;99.90;;;;;;5083886;28;20261;-74
2022/01/25 09:25:27;;;;;;;85.57;35.67;;;5.80;99.90;;;;;;5086665;28;20200;-75
2022/01/25 09:27:55;;;;;;;79.18;34.80;;;5.80;99.90;;;;;;5086674;28;20252;-73
2022/01/25 09:30:23;;;;;;;73.85;33.72;;;5.80;99.90;;;;;;5084880;28;20220;-73
2022/01/25 09:32:51;;;;;;;76.47;33.78;;;5.70;99.90;;;;;;5086531;28;20295;-73
2022/01/25 09:35:19;;;;;;;73.85;34.05;;;5.80;99.90;;;;;;5084483;28;20247;-73
2022/01/25 09:37:50;;;;;;;78.00;34.53;;;5.80;99.90;;;;;;5084279;28;20220;-73
2022/01/25 09:40:21;;;;;;;85.07;35.45;;;5.90;99.90;;;;;;5084483;28;20725;-72
2022/01/25 09:42:52;;;;;;;75.32;32.00;;;6.00;99.90;;;;;;5084031;28;20200;-72
2022/01/25 09:45:20;;;;;;;76.72;34.45;;;6.00;99.90;;;;;;5084684;28;20319;-70
2022/01/25 09:47:51;;;;;;;73.90;34.10;;;6.10;99.90;;;;;;5085677;28;20281;-73
2022/01/25 09:50:19;;;;;;;75.05;35.15;;;6.10;99.90;;;;;;5084501;28;20291;-73
2022/01/25 09:52:47;;;;;;;75.28;34.78;;;6.10;99.90;;;;;;5084194;28;20618;-74
2022/01/25 09:55:18;;;;;;;59.55;30.20;;;6.20;99.90;;;;;;5083627;28;20290;-78
2022/01/25 09:57:46;;;;;;;58.03;28.58;;;6.30;99.90;;;;;;5082292;28;20307;-78
2022/01/25 10:00:19;;;;;;;65.78;30.70;;;6.30;99.90;;;;;;5086817;28;20240;-75
2022/01/25 10:03:02;;;;;;;61.30;28.27;;;6.30;99.90;;;;;;5083077;28;20463;-73
2022/01/25 10:05:36;;;;;;;61.17;30.10;;;6.30;99.90;;;;;;5083227;28;20512;-72
2022/01/25 10:08:06;;;;;;;65.90;29.20;;;6.30;99.90;;;;;;5084648;28;20220;-73
2022/01/25 10:10:37;;;;;;;64.75;29.20;;;6.30;99.90;;;;;;5085234;28;20367;-75
2022/01/25 10:13:11;;;;;;;66.20;33.60;;;6.40;99.90;;;;;;5083418;28;20568;-72
2022/01/25 10:15:40;;;;;;;60.83;29.25;;;6.50;99.90;;;;;;5083656;28;20747;-71
2022/01/25 10:18:15;;;;;;;68.78;29.45;;;6.50;99.90;;;;;;5083907;28;20247;-73
2022/01/25 10:20:45;;;;;;;57.60;26.77;;;6.60;99.90;;;;;;5084457;28;20300;-73
2022/01/25 10:23:17;;;;;;;65.20;30.65;;;6.60;99.90;;;;;;5082900;28;20207;-74
2022/01/25 10:25:53;;;;;;;73.18;32.78;;;6.70;99.90;;;;;;5083876;28;20196;-71
2022/01/25 10:28:24;;;;;;;56.97;26.92;;;6.70;99.90;;;;;;5082635;28;20219;-69
2022/01/25 10:30:55;;;;;;;59.75;28.65;;;6.70;99.90;;;;;;5081625;28;20648;-70
2022/01/25 10:33:29;;;;;;;59.40;28.73;;;6.70;99.90;;;;;;5081246;28;20445;-69
2022/01/25 10:35:58;;;;;;;55.17;27.90;;;6.60;99.90;;;;;;5081937;28;20458;-70
2022/01/25 10:38:30;;;;;;;54.17;26.17;;;6.60;99.90;;;;;;5082246;28;20271;-72
2022/01/25 10:41:04;;;;;;;60.45;27.92;;;6.70;99.90;;;;;;5083738;28;20445;-70
2022/01/25 10:43:37;;;;;;;65.13;26.98;;;6.70;99.90;;;;;;5083292;28;20200;-70
2022/01/25 10:46:13;;;;;;;54.92;26.25;;;6.70;99.90;;;;;;5084231;28;20265;-70
2022/01/25 10:48:43;;;;;;;52.65;25.92;;;6.70;99.90;;;;;;5083337;28;20322;-68
2022/01/25 10:51:16;;;;;;;57.58;28.17;;;6.70;99.90;;;;;;5082630;28;20201;-70
2022/01/25 10:53:44;;;;;;;59.45;27.83;;;6.80;99.90;;;;;;5084533;28;20526;-71
2022/01/25 10:56:12;;;;;;;55.85;26.95;;;6.90;99.90;;;;;;5081601;28;20231;-72
2022/01/25 10:58:42;;;;;;;49.28;27.05;;;6.90;99.90;;;;;;5081893;28;20595;-72
2022/01/25 11:01:11;;;;;;;53.63;26.23;;;6.90;99.90;;;;;;5081921;28;20236;-68
2022/01/25 11:03:41;;;;;;;48.15;25.15;;;7.00;99.90;;;;;;5081098;28;20558;-69
2022/01/25 11:06:15;;;;;;;50.42;24.25;;;7.00;99.90;;;;;;5081197;28;20192;-68
2022/01/25 11:08:46;;;;;;;50.70;25.27;;;7.10;99.90;;;;;;5081405;28;20254;-70
2022/01/25 11:11:24;;;;;;;51.95;27.17;;;7.10;99.90;;;;;;5081477;28;20679;-72
2022/01/25 11:13:54;;;;;;;50.90;26.52;;;7.10;99.90;;;;;;5081756;28;20230;-69
2022/01/25 11:16:23;;;;;;;53.78;28.10;;;7.20;99.90;;;;;;5081204;28;20310;-66
2022/01/25 11:18:57;;;;;;;50.75;24.67;;;7.10;99.90;;;;;;5080820;28;20601;-71
2022/01/25 11:21:25;;;;;;;51.47;26.23;;;7.10;99.90;;;;;;5079123;28;20200;-70
2022/01/25 11:23:54;;;;;;;46.45;23.92;;;7.10;99.90;;;;;;5079942;28;20276;-70
2022/01/25 11:26:24;;;;;;;43.40;22.05;;;7.10;99.90;;;;;;5080791;28;20370;-68
2022/01/25 11:28:52;;;;;;;53.40;25.67;;;7.10;99.90;;;;;;5079962;28;20226;-69
2022/01/25 11:31:24;;;;;;;47.10;23.45;;;7.00;99.90;;;;;;5078427;28;20220;-71
2022/01/25 11:33:54;;;;;;;51.60;24.23;;;6.90;99.90;;;;;;5080978;28;20210;-68
2022/01/25 11:36:22;;;;;;;49.85;24.10;;;6.90;99.90;;;;;;5083220;28;20220;-71
2022/01/25 11:38:52;;;;;;;51.45;24.92;;;6.90;99.90;;;;;;5086475;28;20196;-70
2022/01/25 11:41:25;;;;;;;55.30;24.98;;;6.90;99.90;;;;;;5083257;28;20238;-70
2022/01/25 11:44:07;;;;;;;53.65;24.67;;;6.90;99.90;;;;;;5082976;28;20788;-70
2022/01/25 11:46:43;;;;;;;55.55;26.92;;;6.80;99.90;;;;;;5083772;28;20807;-71
2022/01/25 11:49:16;;;;;;;51.65;25.35;;;6.80;99.90;;;;;;5083276;28;20207;-71
2022/01/25 11:51:45;;;;;;;46.90;24.42;;;6.80;99.90;;;;;;5084375;28;20331;-73
2022/01/25 11:54:12;;;;;;;47.58;23.48;;;6.80;99.90;;;;;;5072008;28;20201;-71
2022/01/25 11:56:42;;;;;;;41.55;22.73;;;6.70;99.90;;;;;;5082637;28;20293;-72
2022/01/25 11:59:13;;;;;;;45.65;23.08;;;6.70;99.90;;;;;;5082866;28;20295;-72
2022/01/25 12:01:51;;;;;;;46.97;23.45;;;6.70;99.90;;;;;;5083855;28;20710;-71
2022/01/25 12:04:19;;;;;;;47.60;24.13;;;6.70;99.90;;;;;;5084685;28;20294;-72
2022/01/25 12:06:59;;;;;;;44.53;22.42;;;6.70;99.90;;;;;;5084540;28;20239;-68
2022/01/25 12:09:44;;;;;;;46.17;23.58;;;6.70;99.90;;;;;;5083585;28;20287;-73
2022/01/25 12:12:14;;;;;;;43.53;22.65;;;6.80;99.90;;;;;;5085481;28;20196;-68
2022/01/25 12:14:46;;;;;;;44.75;21.30;;;6.90;99.90;;;;;;5084022;28;20279;-69
2022/01/25 12:17:17;;;;;;;48.20;22.63;;;6.90;99.90;;;;;;5082717;28;20285;-69
2022/01/25 12:19:49;;;;;;;50.00;24.67;;;7.00;99.90;;;;;;5085778;28;20218;-65
2022/01/25 12:22:37;;;;;;;48.97;22.83;;;7.00;99.90;;;;;;5097996;28;20296;-70
2022/01/25 12:25:14;;;;;;;49.08;24.10;;;7.10;99.90;;;;;;5101028;28;20211;-70
2022/01/25 12:27:54;;;;;;;43.42;21.05;;;7.20;99.90;;;;;;5102501;28;20825;-72
2022/01/25 12:30:33;;;;;;;46.67;23.27;;;7.20;99.90;;;;;;5102001;28;20212;-70
2022/01/25 12:33:05;;;;;;;44.38;22.90;;;7.30;99.90;;;;;;5091484;28;20224;-70
2022/01/25 12:35:36;;;;;;;44.33;22.67;;;7.40;99.90;;;;;;5085207;28;20761;-72
2022/01/25 12:38:09;;;;;;;41.03;20.40;;;7.40;99.90;;;;;;5084379;28;20741;-70
2022/01/25 12:40:52;;;;;;;41.58;20.38;;;7.40;99.90;;;;;;5087935;28;20780;-74
2022/01/25 12:43:25;;;;;;;38.05;19.10;;;7.40;99.90;;;;;;5091161;28;20214;-72
2022/01/25 12:45:58;;;;;;;38.53;18.42;;;7.30;99.90;;;;;;5085162;28;20276;-72
2022/01/25 12:48:30;;;;;;;37.75;19.65;;;7.20;99.90;;;;;;5083449;28;20220;-72
2022/01/25 12:51:05;;;;;;;34.60;18.48;;;7.20;99.90;;;;;;5080205;28;20204;-72
2022/01/25 12:53:35;;;;;;;39.53;18.70;;;7.20;99.90;;;;;;5081113;28;20204;-74
2022/01/25 12:56:06;;;;;;;37.72;18.50;;;7.20;99.90;;;;;;5082401;28;20204;-73
2022/01/25 12:58:35;;;;;;;40.38;19.33;;;7.20;99.90;;;;;;5081683;28;20748;-73
2022/01/25 13:01:07;;;;;;;36.60;19.75;;;7.20;99.90;;;;;;5081831;28;20200;-73
2022/01/25 13:03:41;;;;;;;34.03;18.35;;;7.20;99.90;;;;;;5080904;28;20672;-76
2022/01/25 13:06:14;;;;;;;37.50;19.77;;;7.10;99.90;;;;;;5077914;28;20211;-73
2022/01/25 13:08:48;;;;;;;31.38;18.58;;;7.10;99.90;;;;;;5069012;28;20279;-74
2022/01/25 13:11:25;;;;;;;34.70;18.10;;;7.20;99.90;;;;;;5069161;28;20194;-74
2022/01/25 13:14:17;;;;;;;40.38;20.50;;;7.20;99.90;;;;;;5068666;28;20255;-70
2022/01/25 13:16:50;;;;;;;38.53;19.00;;;7.20;99.90;;;;;;5072035;28;20382;-71
2022/01/25 13:19:22;;;;;;;37.33;18.88;;;7.30;99.90;;;;;;5071336;28;20207;-71
2022/01/25 13:21:54;;;;;;;36.13;19.88;;;7.30;99.90;;;;;;5069727;28;20469;-71
2022/01/25 13:24:45;;;;;;;34.45;18.13;;;7.30;99.90;;;;;;5069869;28;20205;-72
2022/01/25 13:27:15;;;;;;;35.55;20.40;;;7.30;99.90;;;;;;5068645;28;20215;-75
2022/01/25 13:32:36;;;;;;;36.88;18.75;;;7.30;99.90;;;;;;5069266;28;20291;-73
2022/01/25 13:35:24;;;;;;;36.58;17.80;;;7.40;99.90;;;;;;5069407;28;20231;-72
2022/01/25 13:38:07;;;;;;;38.50;18.60;;;7.30;99.90;;;;;;5078450;28;20301;-72
2022/01/25 13:40:46;;;;;;;28.98;16.58;;;7.30;99.90;;;;;;5078950;28;20235;-73
2022/01/25 13:45:42;;;;;;;31.75;16.10;;;7.30;99.90;;;;;;5077754;28;20236;-72
2022/01/25 13:46:22;;;;;;;31.70;16.40;;;7.20;99.90;;;;;;5067410;28;20197;-72
2022/01/25 13:48:53;;;;;;;30.90;15.32;;;7.00;99.90;;;;;;5067754;28;20204;-79
2022/01/25 13:51:25;;;;;;;29.48;15.90;;;7.00;99.90;;;;;;5068898;28;20369;-73
2022/01/25 13:53:55;;;;;;;32.35;15.27;;;6.90;99.90;;;;;;5066953;28;20583;-70
2022/01/25 13:56:26;;;;;;;29.08;15.65;;;7.00;99.90;;;;;;5064749;28;20288;-72
2022/01/25 13:58:54;;;;;;;27.55;16.02;;;6.90;99.90;;;;;;5069491;28;20329;-72
2022/01/25 14:01:24;;;;;;;28.40;15.48;;;6.90;99.90;;;;;;5069181;28;20193;-73
2022/01/25 14:03:56;;;;;;;29.35;14.43;;;7.00;99.90;;;;;;5068393;28;20428;-70
2022/01/25 14:06:27;;;;;;;31.60;16.08;;;7.10;99.90;;;;;;5071724;28;20406;-73
2022/01/25 14:09:01;;;;;;;29.42;15.70;;;7.00;99.90;;;;;;5070903;28;20655;-76
2022/01/25 14:11:37;;;;;;;30.80;15.55;;;7.00;99.90;;;;;;5071007;28;20291;-72
2022/01/25 14:22:47;;;;;;;28.65;14.18;;;7.00;99.90;;;;;;5071833;28;20193;-74